Time;durP1;ratioP1;P1;durP2;ratioP2;P2;SDS_P1;SDS_P2;PMS_P1;PMS_P2;Temp;Humidity;BMP_temperature;BMP_pressure;BME280_temperature;BME280_humidity;BME280_pressure;Samples;Min_cycle;Max_cycle;Signal;HPM_P1;HPM_P2
2023/01/30 00:01:31;;;;;;;22.08;10.75;;;9.60;99.90;;;9.90;98.31;101645.03;5072100;28;20044;-84
2023/01/30 00:04:00;;;;;;;27.17;10.55;;;9.60;99.90;;;9.84;98.37;101636.16;5070699;28;20097;-83
2023/01/30 00:06:29;;;;;;;28.48;11.85;;;9.70;99.90;;;9.99;98.35;101641.59;5072011;28;20052;-83
2023/01/30 00:08:57;;;;;;;24.95;11.13;;;9.70;99.90;;;9.95;97.84;101631.84;5072262;28;20558;-83
2023/01/30 00:11:28;;;;;;;26.25;12.15;;;9.70;99.90;;;9.98;97.53;101648.66;5071780;28;20118;-84
2023/01/30 00:13:57;;;;;;;26.77;11.57;;;9.80;99.90;;;10.08;97.55;101627.59;5072188;28;20048;-83
2023/01/30 00:16:25;;;;;;;23.73;11.30;;;9.80;99.90;;;9.96;97.37;101633.66;5072046;28;20127;-84
2023/01/30 00:18:54;;;;;;;29.35;11.82;;;9.80;99.90;;;9.98;97.35;101632.81;5072813;28;20048;-84
2023/01/30 00:21:24;;;;;;;26.15;11.27;;;9.80;99.90;;;10.00;97.31;101633.69;5073337;28;20052;-83
2023/01/30 00:23:52;;;;;;;24.33;10.67;;;9.80;99.90;;;9.91;97.58;101633.59;5075048;28;20398;-84
2023/01/30 00:26:21;;;;;;;24.17;11.18;;;9.70;99.90;;;9.78;97.44;101607.91;5075434;28;20286;-82
2023/01/30 00:28:49;;;;;;;27.38;11.00;;;9.70;99.90;;;9.67;96.89;101569.94;5074343;28;20049;-85
2023/01/30 00:31:18;;;;;;;26.67;10.52;;;9.70;99.90;;;9.85;97.14;101606.22;5073975;28;20079;-83
2023/01/30 00:33:46;;;;;;;22.38;9.85;;;9.70;99.90;;;9.98;96.96;101618.69;5071798;28;20055;-83
2023/01/30 00:36:15;;;;;;;27.52;11.20;;;9.70;99.90;;;10.00;96.78;101609.91;5073040;28;20041;-84
2023/01/30 00:38:45;;;;;;;23.58;9.60;;;9.80;99.90;;;10.02;96.21;101609.94;5082685;28;20044;-83
2023/01/30 00:41:14;;;;;;;26.02;10.15;;;9.80;99.90;;;10.00;96.24;101616.94;5085019;28;20165;-83
2023/01/30 00:49:26;;;;;;;22.98;9.82;;;9.70;99.90;;;9.91;95.76;101578.09;5028712;28;20452;-83
2023/01/30 00:51:55;;;;;;;33.35;10.70;;;9.70;99.90;;;9.88;95.98;101586.00;5077164;28;20103;-84
2023/01/30 00:54:25;;;;;;;25.38;9.85;;;9.70;99.90;;;9.87;95.52;101589.50;5075561;28;20083;-83
2023/01/30 00:56:53;;;;;;;24.70;10.32;;;9.70;99.90;;;9.93;95.27;101594.84;5075688;28;20466;-83
2023/01/30 00:59:25;;;;;;;22.45;9.57;;;9.70;99.90;;;9.85;95.27;101579.81;5074651;28;20078;-84
2023/01/30 01:01:54;;;;;;;24.38;9.73;;;9.70;99.90;;;9.83;95.16;101570.97;5074917;28;20101;-83
2023/01/30 01:04:23;;;;;;;18.02;9.00;;;9.70;99.90;;;9.87;95.20;101559.56;5074562;28;20399;-84
2023/01/30 01:06:51;;;;;;;25.08;10.10;;;9.70;99.90;;;9.91;95.10;101538.47;5075570;28;20068;-83
2023/01/30 01:09:20;;;;;;;24.63;9.18;;;9.70;99.90;;;9.91;94.95;101522.59;5075782;28;20036;-83
2023/01/30 01:11:50;;;;;;;22.70;8.75;;;9.70;99.90;;;9.86;94.60;101524.34;5075698;28;20112;-84
2023/01/30 01:14:18;;;;;;;34.13;9.80;;;9.70;99.90;;;9.79;94.61;101522.47;5075755;28;20540;-84
2023/01/30 01:16:47;;;;;;;21.83;8.55;;;9.60;99.90;;;9.77;94.21;101503.13;5075146;28;20282;-83
2023/01/30 01:19:15;;;;;;;25.00;8.10;;;9.60;99.90;;;9.42;93.71;101515.09;5073365;28;20048;-82
2023/01/30 01:21:44;;;;;;;25.40;8.80;;;9.70;99.90;;;9.98;93.68;101519.16;5074338;28;20459;-82
2023/01/30 01:24:15;;;;;;;23.88;8.68;;;9.70;99.90;;;9.88;93.56;101519.94;5073316;28;20071;-83
2023/01/30 01:26:43;;;;;;;22.90;8.60;;;9.60;99.90;;;9.95;93.50;101516.47;5074353;28;20106;-82
2023/01/30 01:29:15;;;;;;;22.77;8.15;;;9.70;99.90;;;9.92;93.32;101518.22;5074553;28;20044;-82
2023/01/30 01:31:44;;;;;;;21.58;8.45;;;9.70;99.90;;;9.91;93.08;101524.38;5072920;28;20048;-83
2023/01/30 01:34:13;;;;;;;22.80;8.43;;;9.70;99.90;;;9.88;93.27;101513.78;5072665;28;20048;-83
2023/01/30 01:36:44;;;;;;;20.00;8.57;;;9.60;99.90;;;9.85;93.01;101525.19;5073109;28;20072;-83
2023/01/30 01:39:22;;;;;;;27.42;8.32;;;9.60;99.90;;;9.60;93.02;101483.56;5073006;28;20055;-81
2023/01/30 01:41:50;;;;;;;19.48;7.72;;;9.60;99.90;;;9.78;93.35;101512.81;5074193;28;20040;-84
2023/01/30 01:44:20;;;;;;;24.83;7.95;;;9.60;99.90;;;9.87;93.16;101526.09;5073798;28;20079;-83
2023/01/30 01:46:51;;;;;;;30.33;8.77;;;9.60;99.90;;;9.90;92.69;101555.19;5072269;28;20163;-83
2023/01/30 01:49:24;;;;;;;20.67;9.18;;;9.70;99.90;;;9.87;92.81;101523.44;5073906;28;20041;-83
2023/01/30 01:51:58;;;;;;;20.13;8.05;;;9.70;99.90;;;9.92;92.74;101528.78;5073977;28;20405;-80
2023/01/30 01:54:34;;;;;;;18.75;7.95;;;9.70;99.90;;;10.01;92.54;101537.66;5074101;28;20036;-82
2023/01/30 01:57:06;;;;;;;20.52;7.55;;;9.70;99.90;;;9.92;92.84;101531.41;5072618;28;20102;-83
2023/01/30 01:59:43;;;;;;;21.90;8.07;;;9.70;99.90;;;9.96;92.77;101528.84;5072917;28;20045;-83
2023/01/30 02:02:14;;;;;;;24.08;8.45;;;9.70;99.90;;;9.97;93.18;101534.97;5072780;28;20132;-83
2023/01/30 02:05:03;;;;;;;28.63;9.13;;;9.70;99.90;;;10.00;92.79;101538.56;5073575;28;20090;-83
2023/01/30 02:07:38;;;;;;;23.65;8.30;;;9.80;99.90;;;9.89;92.98;101519.06;5072332;28;20381;-83
2023/01/30 02:10:09;;;;;;;28.15;9.13;;;9.80;99.90;;;9.94;93.33;101541.16;5072313;28;20113;-82
2023/01/30 02:12:39;;;;;;;25.30;7.95;;;9.70;99.90;;;10.00;93.07;101538.56;5073532;28;20076;-83
2023/01/30 02:15:11;;;;;;;26.60;8.73;;;9.80;99.90;;;9.89;93.22;101565.75;5072302;28;20166;-83
2023/01/30 02:17:40;;;;;;;25.55;7.72;;;9.70;99.90;;;9.94;93.17;101527.94;5073306;28;20063;-65
2023/01/30 02:20:23;;;;;;;17.50;7.60;;;9.80;99.90;;;9.76;93.22;101522.47;5074674;28;20052;-65
2023/01/30 02:23:24;;;;;;;33.58;8.15;;;9.80;99.90;;;10.03;92.58;101529.75;5074287;28;20036;-65
2023/01/30 02:26:31;;;;;;;30.17;8.25;;;9.90;99.90;;;10.04;92.89;101507.75;5073255;28;20113;-66
2023/01/30 02:29:27;;;;;;;18.17;7.22;;;9.80;99.90;;;10.00;92.77;101498.91;5053213;28;20056;-65
2023/01/30 02:32:03;;;;;;;23.60;7.13;;;9.90;99.90;;;10.03;92.85;101496.28;5073139;28;20044;-65
2023/01/30 02:34:47;;;;;;;25.90;7.40;;;9.80;99.90;;;10.06;92.81;101505.09;5073089;28;20490;-66
2023/01/30 02:37:29;;;;;;;21.17;8.13;;;9.80;99.90;;;10.06;92.78;101510.41;5073086;28;20387;-65
2023/01/30 02:40:17;;;;;;;24.50;8.70;;;9.80;99.90;;;9.92;92.68;101505.88;5073990;28;20498;-66
2023/01/30 02:42:57;;;;;;;24.17;7.22;;;9.80;99.90;;;9.87;93.18;101523.44;5072662;28;20494;-65
2023/01/30 02:45:34;;;;;;;23.23;7.30;;;9.70;99.90;;;9.94;93.25;101493.56;5074154;28;20098;-65
2023/01/30 02:48:06;;;;;;;26.83;7.60;;;9.80;99.90;;;9.98;92.86;101502.41;5072795;28;20048;-65
2023/01/30 02:50:40;;;;;;;24.33;8.70;;;9.80;99.90;;;9.96;92.88;101510.34;5072748;28;20572;-65
2023/01/30 02:53:10;;;;;;;24.50;7.78;;;9.80;99.90;;;9.89;93.54;101505.84;5072762;28;20052;-65
2023/01/30 02:55:42;;;;;;;21.35;7.25;;;9.70;99.90;;;9.91;93.59;101517.31;5072580;28;20056;-65
2023/01/30 02:58:12;;;;;;;22.13;8.35;;;9.70;99.90;;;9.92;93.88;101497.97;5072621;28;20044;-66
2023/01/30 03:01:20;;;;;;;20.70;7.20;;;9.70;99.90;;;9.89;94.55;101495.28;5072528;28;20040;-65
2023/01/30 03:04:08;;;;;;;25.15;7.28;;;9.70;99.90;;;9.64;94.88;101463.38;5073797;28;20052;-65
2023/01/30 03:07:02;;;;;;;28.27;8.27;;;9.60;99.90;;;9.87;94.66;101504.94;5073805;28;20083;-65
2023/01/30 03:09:43;;;;;;;25.08;7.85;;;9.70;99.90;;;9.89;95.04;101494.41;5072457;28;20122;-67
2023/01/30 03:12:18;;;;;;;25.10;8.43;;;9.70;99.90;;;9.85;94.75;101492.63;5071753;28;20063;-66
2023/01/30 03:14:51;;;;;;;25.80;7.22;;;9.70;99.90;;;9.82;95.02;101490.81;5072427;28;20053;-65
2023/01/30 03:17:22;;;;;;;28.25;8.43;;;9.70;99.90;;;9.83;95.12;101504.94;5072327;28;20052;-65
2023/01/30 03:19:55;;;;;;;25.73;8.15;;;9.70;99.90;;;9.86;94.77;101492.63;5072351;28;20044;-66
2023/01/30 03:22:23;;;;;;;29.90;8.65;;;9.70;99.90;;;9.81;94.91;101496.09;5072194;28;20479;-66
2023/01/30 03:24:53;;;;;;;26.48;7.97;;;9.60;99.90;;;9.78;95.43;101502.25;5073488;28;20033;-65
2023/01/30 03:27:22;;;;;;;21.98;7.65;;;9.60;99.90;;;9.85;95.33;101504.06;5073558;28;20036;-65
2023/01/30 03:29:51;;;;;;;22.40;7.60;;;9.60;99.90;;;9.65;95.41;101481.88;5072074;28;20037;-65
2023/01/30 03:32:19;;;;;;;26.98;8.80;;;9.60;99.90;;;9.77;95.23;101499.59;5072366;28;20056;-66
2023/01/30 03:34:47;;;;;;;25.83;7.95;;;9.60;99.90;;;9.85;95.49;101504.06;5072078;28;20036;-66
2023/01/30 03:37:17;;;;;;;24.30;8.48;;;9.60;99.90;;;9.80;95.14;101475.81;5072091;28;20048;-66
2023/01/30 03:39:46;;;;;;;27.83;8.43;;;9.60;99.90;;;9.81;95.09;101494.31;5072029;28;20050;-65
2023/01/30 03:42:15;;;;;;;25.35;9.10;;;9.60;99.90;;;9.61;95.05;101456.31;5073206;28;20044;-66
2023/01/30 03:44:44;;;;;;;28.23;8.80;;;9.60;99.90;;;9.75;95.49;101493.41;5072144;28;20091;-65
2023/01/30 03:47:13;;;;;;;22.73;7.45;;;9.60;99.90;;;9.78;95.53;101494.31;5088824;28;20049;-65
2023/01/30 03:49:42;;;;;;;27.88;8.35;;;9.60;99.90;;;9.70;95.61;101490.72;5071888;28;20074;-65
2023/01/30 03:52:10;;;;;;;23.85;8.60;;;9.60;99.90;;;9.68;96.30;101492.47;5072152;28;20072;-65
2023/01/30 03:54:40;;;;;;;27.10;8.65;;;9.50;99.90;;;9.65;96.57;101489.78;5073198;28;20127;-65
2023/01/30 03:57:08;;;;;;;31.08;9.25;;;9.50;99.90;;;9.56;96.69;101481.78;5088772;28;20072;-65
2023/01/30 03:59:37;;;;;;;28.48;8.88;;;9.50;99.90;;;9.73;96.56;101503.97;5071574;28;20045;-66
2023/01/30 04:02:08;;;;;;;33.65;8.90;;;9.50;99.90;;;9.68;97.00;101497.75;5072114;28;20417;-66
2023/01/30 04:04:37;;;;;;;30.85;8.10;;;9.50;99.90;;;9.65;97.26;101483.63;5071592;28;20048;-65
2023/01/30 04:07:08;;;;;;;31.67;7.70;;;9.50;99.90;;;9.71;97.45;101492.50;5071805;28;20044;-65
2023/01/30 04:09:39;;;;;;;24.33;8.30;;;9.50;99.90;;;9.64;97.74;101495.06;5071866;28;20449;-65
2023/01/30 04:12:08;;;;;;;38.13;9.43;;;9.50;99.90;;;9.40;97.76;101453.47;5088240;28;20405;-66
2023/01/30 04:14:42;;;;;;;28.77;8.77;;;9.40;99.90;;;9.59;97.88;101504.69;5071688;28;20048;-66
2023/01/30 04:17:39;;;;;;;33.40;8.32;;;9.40;99.90;;;9.54;98.40;101507.28;5071599;28;20048;-65
2023/01/30 04:20:18;;;;;;;23.10;8.23;;;9.40;99.90;;;9.44;97.90;101505.44;5072994;28;20067;-65
2023/01/30 04:22:51;;;;;;;35.45;8.63;;;9.30;99.90;;;9.35;97.93;101486.84;5071807;28;20045;-65
2023/01/30 04:25:21;;;;;;;23.08;7.38;;;9.20;99.90;;;9.17;97.60;101494.59;5074552;28;20494;-66
2023/01/30 04:27:50;;;;;;;;;;;9.10;99.90;;;9.01;96.17;101463.59;5075984;28;20494;-65
2023/01/30 04:30:22;;;;;;;26.02;7.55;;;9.00;99.90;;;9.19;95.92;101490.22;5075536;28;19920;-66
2023/01/30 04:32:55;;;;;;;24.55;6.43;;;9.00;99.90;;;9.19;95.92;101503.41;5075047;28;20454;-65
2023/01/30 04:35:23;;;;;;;22.27;7.45;;;9.00;99.90;;;9.20;95.84;101515.72;5075586;28;20465;-65
2023/01/30 04:37:52;;;;;;;21.67;6.68;;;9.00;99.90;;;9.21;95.84;101503.41;5075255;28;20036;-65
2023/01/30 04:40:22;;;;;;;25.05;7.25;;;9.00;99.90;;;9.20;94.88;101510.44;5075437;28;20056;-64
2023/01/30 04:42:50;;;;;;;23.63;6.17;;;9.00;99.90;;;9.10;91.08;101505.91;5076412;28;20051;-64
2023/01/30 04:45:57;;;;;;;18.50;5.70;;;9.00;99.90;;;9.23;88.51;101507.84;5034036;28;20046;-66
2023/01/30 04:48:26;;;;;;;27.45;6.95;;;9.10;99.90;;;9.38;86.78;101525.59;5017399;28;20073;-65
2023/01/30 04:50:57;;;;;;;20.50;6.13;;;9.20;99.90;;;9.40;85.58;101515.94;5044994;28;20079;-64
2023/01/30 04:53:26;;;;;;;16.33;5.90;;;9.20;99.90;;;9.48;85.90;101532.75;5074999;28;20139;-65
2023/01/30 04:55:56;;;;;;;19.98;6.45;;;9.30;99.90;;;9.49;86.22;101531.88;5075034;28;20479;-65
2023/01/30 04:58:24;;;;;;;19.55;6.18;;;9.30;99.90;;;9.41;86.38;101517.69;5076244;28;20044;-65
2023/01/30 05:00:52;;;;;;;19.55;6.28;;;9.30;99.90;;;9.41;86.46;101544.09;5074808;28;20032;-64
2023/01/30 05:03:21;;;;;;;23.75;6.60;;;9.30;99.90;;;9.39;86.83;101530.88;5074748;28;20075;-65
2023/01/30 05:05:49;;;;;;;27.27;7.38;;;9.20;99.90;;;9.26;86.95;101530.72;5075819;28;20422;-65
2023/01/30 05:08:17;;;;;;;26.15;8.00;;;9.10;99.90;;;9.23;87.42;101521.06;5075791;28;20045;-64
2023/01/30 05:10:45;;;;;;;25.50;7.32;;;9.10;99.90;;;9.11;87.17;101507.69;5075966;28;20098;-65
2023/01/30 05:13:15;;;;;;;26.13;7.97;;;9.10;99.90;;;9.24;87.49;101528.09;5075766;28;20049;-64
2023/01/30 05:15:45;;;;;;;25.50;7.97;;;9.10;99.90;;;9.12;87.84;101545.53;5075863;28;20387;-65
2023/01/30 05:18:13;;;;;;;22.63;7.53;;;9.00;99.90;;;9.07;87.82;101538.44;5075856;28;20047;-64
2023/01/30 05:20:42;;;;;;;25.05;7.90;;;8.90;99.90;;;9.08;87.75;101541.94;5075613;28;20051;-65
2023/01/30 05:23:10;;;;;;;28.63;7.78;;;8.90;99.90;;;9.09;87.62;101538.47;5075458;28;20486;-65
2023/01/30 05:25:38;;;;;;;25.08;7.22;;;8.90;99.90;;;8.94;88.33;101525.09;5075413;28;20060;-65
2023/01/30 05:28:07;;;;;;;27.15;8.45;;;8.80;99.90;;;9.03;88.24;101534.00;5075391;28;20082;-64
2023/01/30 05:30:37;;;;;;;31.00;7.90;;;8.90;99.90;;;8.94;88.22;101539.13;5075373;28;20047;-65
2023/01/30 05:33:05;;;;;;;28.98;8.02;;;8.80;99.90;;;8.95;88.38;101532.13;5075394;28;20055;-65
2023/01/30 05:35:33;;;;;;;29.27;7.43;;;8.80;99.90;;;8.88;88.44;101523.22;5075746;28;20039;-65
2023/01/30 05:38:02;;;;;;;29.15;7.47;;;8.70;99.90;;;8.94;88.82;101530.38;5075182;28;20052;-65
2023/01/30 05:40:30;;;;;;;29.67;7.25;;;8.70;99.90;;;8.98;88.62;101540.94;5075034;28;20040;-65
2023/01/30 05:42:58;;;;;;;35.58;8.05;;;8.80;99.90;;;8.88;89.69;101559.31;5075132;28;20039;-65
2023/01/30 05:45:27;;;;;;;42.15;9.13;;;8.70;99.90;;;8.91;90.53;101562.84;5075296;28;20048;-65
2023/01/30 05:47:56;;;;;;;31.20;8.40;;;8.70;99.90;;;8.91;90.61;101546.13;5075226;28;20048;-64
2023/01/30 05:50:29;;;;;;;42.67;9.00;;;8.70;99.90;;;8.83;91.07;101547.78;5075209;28;20040;-64
2023/01/30 05:52:58;;;;;;;39.75;8.68;;;8.70;99.90;;;8.74;91.17;101548.56;5075221;28;20458;-64
2023/01/30 05:55:26;;;;;;;32.97;8.32;;;8.60;99.90;;;8.76;91.38;101548.56;5075115;28;20049;-64
2023/01/30 05:57:54;;;;;;;38.83;8.75;;;8.60;99.90;;;8.69;90.95;101549.38;5074772;28;20493;-64
2023/01/30 06:00:23;;;;;;;34.95;8.80;;;8.50;99.90;;;8.61;89.81;101536.06;5074793;28;20545;-65
2023/01/30 06:02:51;;;;;;;29.55;7.97;;;8.50;99.90;;;8.73;88.83;101540.63;5073696;28;20537;-65
2023/01/30 06:05:21;;;;;;;41.60;8.77;;;8.50;99.90;;;8.66;88.42;101558.09;5074576;28;20052;-65
2023/01/30 06:07:49;;;;;;;51.10;9.65;;;8.50;99.90;;;8.73;87.25;101569.66;5075206;28;20107;-65
2023/01/30 06:10:18;;;;;;;36.67;8.57;;;8.50;99.90;;;8.64;86.79;101574.75;5073566;28;20482;-65
2023/01/30 06:12:46;;;;;;;35.45;9.20;;;8.40;99.90;;;8.60;86.24;101557.13;5073039;28;20498;-65
2023/01/30 06:15:14;;;;;;;42.10;9.00;;;8.40;99.90;;;8.57;85.57;101572.91;5074706;28;20052;-65
2023/01/30 06:17:44;;;;;;;38.95;9.10;;;8.40;99.90;;;8.48;86.20;101571.00;5074576;28;20041;-65
2023/01/30 06:20:13;;;;;;;43.58;11.00;;;8.30;99.90;;;8.54;84.97;101551.75;5074686;28;20139;-65
2023/01/30 06:22:42;;;;;;;40.70;8.95;;;8.30;99.90;;;8.54;84.72;101538.56;5074340;28;20064;-65
2023/01/30 06:25:11;;;;;;;44.28;9.48;;;8.30;99.90;;;8.57;83.73;101559.72;5074196;28;20051;-65
2023/01/30 06:27:39;;;;;;;38.78;8.88;;;8.40;99.90;;;8.59;82.46;101552.72;5074504;28;20100;-66
2023/01/30 06:30:10;;;;;;;41.38;8.88;;;8.40;99.90;;;8.45;81.90;101546.34;5074154;28;20041;-64
2023/01/30 06:32:38;;;;;;;51.50;9.27;;;8.30;99.90;;;8.51;81.31;101552.63;5074490;28;20106;-65
2023/01/30 06:35:08;;;;;;;33.92;8.38;;;8.40;99.90;;;8.04;80.14;101493.88;5074601;28;20040;-64
2023/01/30 06:37:36;;;;;;;46.30;9.40;;;8.20;99.90;;;8.48;79.68;101560.47;5074606;28;20043;-64
2023/01/30 06:40:07;;;;;;;42.10;9.88;;;8.30;99.90;;;8.40;78.94;101554.19;5074333;28;20040;-64
2023/01/30 06:42:35;;;;;;;39.47;9.07;;;8.20;99.90;;;8.34;78.14;101533.03;5072913;28;20059;-65
2023/01/30 06:45:05;;;;;;;42.42;9.02;;;8.20;99.90;;;8.33;78.35;101535.63;5074128;28;20036;-65
2023/01/30 06:47:33;;;;;;;35.00;8.75;;;8.20;99.90;;;8.40;78.22;101551.56;5073291;28;20456;-65
2023/01/30 06:50:01;;;;;;;29.88;8.18;;;8.20;99.90;;;8.32;77.84;101549.69;5073799;28;20045;-66
2023/01/30 06:52:30;;;;;;;34.15;7.85;;;8.20;99.90;;;8.35;77.49;101561.16;5074007;28;20044;-65
2023/01/30 06:54:58;;;;;;;33.03;8.00;;;8.20;99.90;;;8.31;76.64;101561.97;5073588;28;20498;-65
2023/01/30 06:57:28;;;;;;;32.70;8.10;;;8.20;99.90;;;8.35;76.57;101570.78;5073892;28;20055;-66
2023/01/30 06:59:56;;;;;;;29.15;6.75;;;8.10;99.90;;;8.34;76.00;101579.59;5073995;28;20044;-65
2023/01/30 07:02:24;;;;;;;32.15;7.85;;;8.20;99.90;;;8.35;75.77;101574.31;5073689;28;20041;-66
2023/01/30 07:04:53;;;;;;;33.75;8.02;;;8.20;99.90;;;8.38;76.06;101586.69;5073340;28;20502;-66
2023/01/30 07:07:21;;;;;;;35.95;7.80;;;8.20;99.90;;;8.28;76.44;101566.31;5073757;28;20033;-65
2023/01/30 07:09:49;;;;;;;32.80;8.20;;;8.10;99.90;;;8.32;76.42;101594.47;5074066;28;20071;-65
2023/01/30 07:12:36;;;;;;;38.00;8.27;;;8.10;99.90;;;8.32;76.39;101578.66;5073496;28;20048;-65
2023/01/30 07:15:06;;;;;;;30.80;7.45;;;8.20;99.90;;;8.33;76.39;101590.97;5073308;28;20140;-64
2023/01/30 07:17:34;;;;;;;34.03;8.27;;;8.20;99.90;;;8.04;76.66;101572.91;5073528;28;20453;-65
2023/01/30 07:20:03;;;;;;;43.22;7.55;;;8.20;99.90;;;8.31;76.65;101593.59;5072163;28;20044;-65
2023/01/30 07:22:31;;;;;;;37.65;7.35;;;8.20;99.90;;;8.32;77.03;101589.22;5072113;28;20468;-65
2023/01/30 07:24:59;;;;;;;36.90;8.13;;;8.20;99.90;;;8.24;77.43;101591.69;5072915;28;20044;-65
2023/01/30 07:27:28;;;;;;;33.78;8.27;;;8.10;99.90;;;8.31;77.33;101613.78;5073062;28;20072;-65
2023/01/30 07:29:57;;;;;;;32.35;7.80;;;8.10;99.90;;;8.35;77.77;101616.50;5073356;28;20444;-65
2023/01/30 07:32:26;;;;;;;31.67;7.20;;;8.20;99.90;;;8.30;77.64;101619.94;5073146;28;20059;-65
2023/01/30 07:34:54;;;;;;;38.40;8.23;;;8.10;99.90;;;8.36;77.22;101626.19;5073093;28;20064;-64
2023/01/30 07:37:22;;;;;;;32.35;8.32;;;8.20;99.90;;;8.37;76.94;101609.50;5073182;28;20040;-65
2023/01/30 07:39:51;;;;;;;29.50;7.50;;;8.20;99.90;;;8.38;76.69;101616.53;5073569;28;20051;-68
2023/01/30 07:42:19;;;;;;;40.83;8.52;;;8.20;99.90;;;8.41;76.88;101619.25;5073225;28;20037;-64
2023/01/30 07:44:47;;;;;;;30.35;7.50;;;8.20;99.90;;;8.35;77.47;101600.69;5072925;28;20047;-63
2023/01/30 07:47:18;;;;;;;31.73;7.78;;;8.20;99.90;;;8.44;77.51;101599.97;5072951;28;20044;-63
2023/01/30 07:49:47;;;;;;;34.30;8.82;;;8.30;99.90;;;8.41;77.37;101592.88;5073520;28;20136;-62
2023/01/30 07:52:15;;;;;;;33.95;8.27;;;8.30;99.90;;;8.40;77.32;101585.81;5072862;28;20444;-63
2023/01/30 07:54:44;;;;;;;32.35;7.55;;;8.30;99.90;;;8.49;77.21;101620.25;5073351;28;20048;-61
2023/01/30 07:57:12;;;;;;;36.85;8.90;;;8.40;99.90;;;8.57;76.83;101596.66;5073294;28;20486;-62
2023/01/30 07:59:41;;;;;;;28.85;7.47;;;8.40;99.90;;;8.51;76.41;101601.81;5074604;28;20124;-63
2023/01/30 08:02:11;;;;;;;32.17;8.05;;;8.50;99.90;;;8.62;76.78;101601.13;5077046;28;20049;-64
2023/01/30 08:04:40;;;;;;;33.55;8.38;;;8.50;99.90;;;8.75;76.29;101623.31;5076787;28;20036;-63
2023/01/30 08:07:09;;;;;;;35.88;7.38;;;8.50;99.90;;;8.65;76.04;101635.44;5077059;28;20159;-64
2023/01/30 08:09:37;;;;;;;30.33;7.25;;;8.50;99.90;;;8.81;75.63;101639.19;5076786;28;20056;-63
2023/01/30 08:12:06;;;;;;;38.55;8.45;;;8.60;99.90;;;8.86;75.89;101653.34;5077063;28;20048;-64
2023/01/30 08:14:34;;;;;;;34.00;7.30;;;8.70;99.90;;;8.93;75.01;101639.38;5077053;28;20079;-64
2023/01/30 08:17:03;;;;;;;34.95;7.85;;;8.70;99.90;;;9.06;73.78;101620.22;5076719;28;20140;-64
2023/01/30 08:19:31;;;;;;;31.27;7.40;;;8.90;99.90;;;9.23;73.12;101645.09;5076632;28;20041;-62
2023/01/30 08:22:01;;;;;;;28.85;7.97;;;9.00;99.90;;;9.30;73.10;101646.94;5076496;28;20045;-62
2023/01/30 08:24:29;;;;;;;31.08;8.15;;;9.10;99.90;;;9.26;73.17;101636.31;5076629;28;20037;-63
2023/01/30 08:26:59;;;;;;;36.72;9.18;;;9.20;99.90;;;8.68;73.15;101537.94;5076677;28;20095;-61
2023/01/30 08:29:27;;;;;;;31.77;8.68;;;9.20;99.90;;;9.29;73.45;101650.44;5076510;28;20478;-63
2023/01/30 08:31:57;;;;;;;28.73;7.57;;;9.20;99.90;;;9.49;73.00;101666.53;5076374;28;20036;-61
2023/01/30 08:34:26;;;;;;;34.10;8.48;;;9.30;99.90;;;9.46;73.21;101662.13;5076403;28;20482;-63
2023/01/30 08:36:54;;;;;;;36.33;8.68;;;9.30;99.90;;;9.49;73.59;101659.50;5076273;28;20142;-64
2023/01/30 08:39:24;;;;;;;35.83;8.50;;;9.30;99.90;;;9.53;72.82;101666.63;5076152;28;20044;-64
2023/01/30 08:41:52;;;;;;;35.15;7.68;;;9.40;99.90;;;9.61;72.67;101677.25;5076725;28;20049;-64
2023/01/30 08:44:21;;;;;;;32.08;7.20;;;9.40;99.90;;;9.53;72.58;101669.25;5076145;28;20068;-64
2023/01/30 08:46:49;;;;;;;29.58;7.70;;;9.30;99.90;;;9.57;72.46;101686.91;5076307;28;20036;-63
2023/01/30 08:49:17;;;;;;;26.95;7.65;;;9.40;99.90;;;9.66;71.50;101672.91;5076050;28;20047;-63
2023/01/30 08:51:46;;;;;;;35.03;8.55;;;9.50;99.90;;;9.64;72.03;101690.53;5091628;28;20044;-64
2023/01/30 08:54:14;;;;;;;34.40;7.57;;;9.50;99.90;;;9.65;70.96;101706.38;5074920;28;20075;-64
2023/01/30 08:56:44;;;;;;;30.50;7.47;;;9.50;99.90;;;9.57;71.08;101693.94;5076098;28;20044;-64
2023/01/30 08:59:12;;;;;;;32.43;7.20;;;9.50;99.90;;;9.37;71.76;101709.50;5076282;28;20068;-63
2023/01/30 09:01:41;;;;;;;29.05;6.95;;;9.30;99.90;;;9.28;71.82;101709.41;5076116;28;20041;-68
2023/01/30 09:04:09;;;;;;;30.75;7.57;;;9.20;99.90;;;9.29;72.63;101703.22;5075824;28;20040;-64
2023/01/30 09:06:38;;;;;;;32.58;7.57;;;9.10;99.90;;;9.40;72.77;101717.50;5075630;28;20040;-68
2023/01/30 09:09:06;;;;;;;35.97;8.63;;;9.20;99.90;;;9.18;73.58;101698.66;5075484;28;20040;-68
2023/01/30 09:11:34;;;;;;;28.98;7.50;;;9.10;99.90;;;9.37;73.61;101717.44;5074786;28;20053;-68
2023/01/30 09:14:04;;;;;;;30.58;7.38;;;9.20;99.90;;;9.48;73.07;101722.88;5075944;28;20079;-66
2023/01/30 09:16:32;;;;;;;33.90;7.57;;;9.30;99.90;;;9.56;73.29;101706.25;5075666;28;20463;-67
2023/01/30 09:19:00;;;;;;;34.30;8.15;;;9.40;99.90;;;9.48;73.01;101721.13;5074515;28;20045;-67
2023/01/30 09:21:30;;;;;;;31.75;8.05;;;9.40;99.90;;;9.53;73.17;101735.28;5075473;28;20552;-67
2023/01/30 09:23:59;;;;;;;34.38;7.55;;;9.30;99.90;;;9.74;72.26;101719.69;5075768;28;20051;-67
2023/01/30 09:26:27;;;;;;;29.42;7.22;;;9.50;99.90;;;9.78;72.13;101732.09;5075612;28;20040;-67
2023/01/30 09:28:55;;;;;;;30.15;7.10;;;9.60;99.90;;;9.94;71.08;101739.34;5075366;28;20037;-67
2023/01/30 09:31:25;;;;;;;32.65;7.88;;;9.70;99.90;;;10.00;70.63;101742.06;5075273;28;20514;-67
2023/01/30 09:33:54;;;;;;;31.60;6.93;;;9.80;99.90;;;10.19;70.66;101734.34;5075312;28;20047;-67
2023/01/30 09:36:22;;;;;;;29.73;7.90;;;9.90;99.90;;;10.09;70.56;101737.72;5075783;28;20371;-67
2023/01/30 09:38:50;;;;;;;30.00;7.30;;;9.90;99.90;;;9.93;70.97;101734.00;5075171;28;20047;-67
2023/01/30 09:41:53;;;;;;;30.88;7.85;;;9.80;99.90;;;9.72;70.55;101715.25;5075025;28;20482;-67
2023/01/30 09:44:57;;;;;;;32.15;7.45;;;9.80;99.90;;;9.54;71.51;101760.81;5075094;28;20041;-68
2023/01/30 09:47:40;;;;;;;28.50;7.35;;;9.50;99.90;;;9.40;71.88;101756.19;5074856;28;20486;-67
2023/01/30 09:50:43;;;;;;;31.05;7.80;;;9.30;99.90;;;9.57;72.24;101775.81;5074959;28;20459;-67
2023/01/30 09:53:20;;;;;;;37.13;9.07;;;9.30;99.90;;;9.46;72.40;101783.59;5074801;28;20483;-67
2023/01/30 09:55:49;;;;;;;30.95;7.60;;;9.30;99.90;;;9.22;72.88;101766.47;5075072;28;20052;-67
2023/01/30 09:58:21;;;;;;;30.40;7.78;;;9.10;99.90;;;9.21;73.02;101752.41;5074852;28;20044;-67
2023/01/30 10:00:54;;;;;;;30.33;7.47;;;9.10;99.90;;;9.25;72.44;101770.09;5075140;28;20049;-67
2023/01/30 10:03:31;;;;;;;31.23;7.55;;;9.10;99.90;;;9.42;72.44;101781.78;5074840;28;20051;-67
2023/01/30 10:06:06;;;;;;;35.33;7.93;;;9.20;99.90;;;9.66;72.88;101789.13;5074333;28;20044;-67
2023/01/30 10:08:48;;;;;;;35.05;8.13;;;9.30;99.90;;;9.51;72.55;101784.53;5074506;28;20044;-67
2023/01/30 10:11:33;;;;;;;32.25;8.18;;;9.40;99.90;;;9.44;72.77;101805.56;5074577;28;20067;-67
2023/01/30 10:14:50;;;;;;;31.20;7.53;;;9.30;99.90;;;9.35;73.09;101802.78;5074582;28;20127;-67
2023/01/30 10:17:34;;;;;;;35.20;7.75;;;9.20;99.90;;;9.41;73.14;101795.81;5074297;28;20123;-67
2023/01/30 10:20:38;;;;;;;35.63;7.68;;;9.20;99.90;;;9.34;73.09;101807.16;5074249;28;20475;-67
2023/01/30 10:23:43;;;;;;;34.60;8.07;;;9.20;99.90;;;9.52;73.14;101814.50;5041225;28;20072;-67
2023/01/30 10:26:15;;;;;;;36.25;7.93;;;9.30;99.90;;;9.24;73.67;101817.53;5074138;28;20082;-67
2023/01/30 10:28:51;;;;;;;37.88;8.90;;;9.10;99.90;;;9.23;72.97;101808.75;5074287;28;20048;-67
2023/01/30 10:31:43;;;;;;;34.70;8.27;;;9.10;99.90;;;9.18;73.75;101823.63;5072976;28;20516;-67
2023/01/30 10:34:18;;;;;;;44.53;8.93;;;9.10;99.90;;;9.19;74.10;101820.13;5074560;28;20052;-67
2023/01/30 10:36:54;;;;;;;36.83;7.95;;;9.10;99.90;;;9.27;73.92;101828.16;5074145;28;20101;-66
2023/01/30 10:39:29;;;;;;;40.60;9.32;;;9.10;99.90;;;9.27;73.98;101821.13;5074410;28;20049;-67
2023/01/30 10:42:08;;;;;;;36.80;8.55;;;9.10;99.90;;;9.25;74.22;101833.44;5072761;28;20541;-66
2023/01/30 10:44:41;;;;;;;;;;;9.10;99.90;;;9.18;73.63;101823.63;5074227;28;20036;-66